sensor_id;sensor_type;location;lat;lon;timestamp;P1;durP1;ratioP1;P2;durP2;ratioP2
57047;SDS011;42934;54.294;18.598;2023-01-30T00:00:12;22.42;;;11.43;;
57047;SDS011;42934;54.294;18.598;2023-01-30T00:03:03;15.63;;;9.63;;
57047;SDS011;42934;54.294;18.598;2023-01-30T00:05:32;18.10;;;10.18;;
57047;SDS011;42934;54.294;18.598;2023-01-30T00:08:02;17.65;;;11.07;;
57047;SDS011;42934;54.294;18.598;2023-01-30T00:10:31;18.83;;;10.85;;
57047;SDS011;42934;54.294;18.598;2023-01-30T00:13:01;14.50;;;9.57;;
57047;SDS011;42934;54.294;18.598;2023-01-30T00:15:30;18.75;;;9.80;;
57047;SDS011;42934;54.294;18.598;2023-01-30T00:17:59;18.10;;;10.20;;
57047;SDS011;42934;54.294;18.598;2023-01-30T00:20:30;17.75;;;10.20;;
57047;SDS011;42934;54.294;18.598;2023-01-30T00:22:59;16.20;;;9.70;;
57047;SDS011;42934;54.294;18.598;2023-01-30T00:25:28;16.45;;;10.75;;
57047;SDS011;42934;54.294;18.598;2023-01-30T00:27:59;16.67;;;10.68;;
57047;SDS011;42934;54.294;18.598;2023-01-30T00:30:28;16.15;;;9.88;;
57047;SDS011;42934;54.294;18.598;2023-01-30T00:32:58;15.20;;;8.68;;
57047;SDS011;42934;54.294;18.598;2023-01-30T00:35:27;14.18;;;9.50;;
57047;SDS011;42934;54.294;18.598;2023-01-30T00:37:57;13.85;;;8.98;;
57047;SDS011;42934;54.294;18.598;2023-01-30T00:40:28;14.30;;;9.30;;
57047;SDS011;42934;54.294;18.598;2023-01-30T00:42:58;16.70;;;9.40;;
57047;SDS011;42934;54.294;18.598;2023-01-30T00:45:44;14.80;;;9.07;;
57047;SDS011;42934;54.294;18.598;2023-01-30T00:48:33;14.40;;;8.27;;
57047;SDS011;42934;54.294;18.598;2023-01-30T00:51:02;14.98;;;9.45;;
57047;SDS011;42934;54.294;18.598;2023-01-30T00:53:33;15.70;;;9.13;;
57047;SDS011;42934;54.294;18.598;2023-01-30T00:58:31;15.75;;;8.95;;
57047;SDS011;42934;54.294;18.598;2023-01-30T01:01:01;15.07;;;9.68;;
57047;SDS011;42934;54.294;18.598;2023-01-30T01:03:31;16.17;;;10.48;;
57047;SDS011;42934;54.294;18.598;2023-01-30T01:06:00;17.90;;;10.35;;
57047;SDS011;42934;54.294;18.598;2023-01-30T01:08:29;15.85;;;10.10;;
57047;SDS011;42934;54.294;18.598;2023-01-30T01:11:00;16.20;;;9.63;;
57047;SDS011;42934;54.294;18.598;2023-01-30T01:13:29;16.52;;;8.93;;
57047;SDS011;42934;54.294;18.598;2023-01-30T01:15:58;16.45;;;9.77;;
57047;SDS011;42934;54.294;18.598;2023-01-30T01:18:28;17.88;;;10.75;;
57047;SDS011;42934;54.294;18.598;2023-01-30T01:20:57;18.08;;;10.35;;
57047;SDS011;42934;54.294;18.598;2023-01-30T01:23:26;15.60;;;9.95;;
57047;SDS011;42934;54.294;18.598;2023-01-30T01:25:55;17.58;;;10.18;;
57047;SDS011;42934;54.294;18.598;2023-01-30T01:28:30;15.05;;;9.65;;
57047;SDS011;42934;54.294;18.598;2023-01-30T01:30:59;14.10;;;9.43;;
57047;SDS011;42934;54.294;18.598;2023-01-30T01:33:34;16.17;;;9.57;;
57047;SDS011;42934;54.294;18.598;2023-01-30T01:36:03;16.25;;;10.05;;
57047;SDS011;42934;54.294;18.598;2023-01-30T01:38:33;15.63;;;9.48;;
57047;SDS011;42934;54.294;18.598;2023-01-30T01:41:04;17.17;;;9.65;;
57047;SDS011;42934;54.294;18.598;2023-01-30T01:43:35;14.68;;;8.68;;
57047;SDS011;42934;54.294;18.598;2023-01-30T01:46:08;13.85;;;8.70;;
57047;SDS011;42934;54.294;18.598;2023-01-30T01:48:42;13.82;;;8.88;;
57047;SDS011;42934;54.294;18.598;2023-01-30T01:51:15;15.20;;;8.57;;
57047;SDS011;42934;54.294;18.598;2023-01-30T01:53:50;14.25;;;8.90;;
57047;SDS011;42934;54.294;18.598;2023-01-30T01:56:25;14.07;;;9.55;;
57047;SDS011;42934;54.294;18.598;2023-01-30T01:58:55;15.25;;;9.40;;
57047;SDS011;42934;54.294;18.598;2023-01-30T02:01:28;11.55;;;7.40;;
57047;SDS011;42934;54.294;18.598;2023-01-30T02:03:59;13.68;;;8.25;;
57047;SDS011;42934;54.294;18.598;2023-01-30T02:06:35;15.85;;;9.82;;
57047;SDS011;42934;54.294;18.598;2023-01-30T02:09:07;16.58;;;10.57;;
57047;SDS011;42934;54.294;18.598;2023-01-30T02:11:40;17.20;;;10.18;;
57047;SDS011;42934;54.294;18.598;2023-01-30T02:14:12;16.65;;;9.63;;
57047;SDS011;42934;54.294;18.598;2023-01-30T02:16:43;14.88;;;10.15;;
57047;SDS011;42934;54.294;18.598;2023-01-30T02:19:18;15.40;;;10.13;;
57047;SDS011;42934;54.294;18.598;2023-01-30T02:22:04;14.55;;;10.05;;
57047;SDS011;42934;54.294;18.598;2023-01-30T02:28:14;16.27;;;9.75;;
57047;SDS011;42934;54.294;18.598;2023-01-30T02:31:18;16.90;;;10.07;;
57047;SDS011;42934;54.294;18.598;2023-01-30T02:34:10;18.02;;;10.25;;
57047;SDS011;42934;54.294;18.598;2023-01-30T02:36:53;20.08;;;11.10;;
57047;SDS011;42934;54.294;18.598;2023-01-30T02:39:37;15.60;;;9.65;;
57047;SDS011;42934;54.294;18.598;2023-01-30T02:42:14;16.48;;;10.02;;
57047;SDS011;42934;54.294;18.598;2023-01-30T02:44:51;16.42;;;8.98;;
57047;SDS011;42934;54.294;18.598;2023-01-30T02:47:31;17.42;;;10.80;;
57047;SDS011;42934;54.294;18.598;2023-01-30T02:50:07;18.17;;;10.07;;
57047;SDS011;42934;54.294;18.598;2023-01-30T02:52:41;17.15;;;10.85;;
57047;SDS011;42934;54.294;18.598;2023-01-30T02:55:16;17.80;;;10.93;;
57047;SDS011;42934;54.294;18.598;2023-01-30T02:57:48;15.98;;;9.68;;
57047;SDS011;42934;54.294;18.598;2023-01-30T03:00:20;15.13;;;9.90;;
57047;SDS011;42934;54.294;18.598;2023-01-30T03:03:11;15.45;;;9.35;;
57047;SDS011;42934;54.294;18.598;2023-01-30T03:06:15;16.42;;;10.13;;
57047;SDS011;42934;54.294;18.598;2023-01-30T03:09:02;16.17;;;9.80;;
57047;SDS011;42934;54.294;18.598;2023-01-30T03:11:43;16.13;;;10.38;;
57047;SDS011;42934;54.294;18.598;2023-01-30T03:14:17;15.27;;;9.88;;
57047;SDS011;42934;54.294;18.598;2023-01-30T03:16:51;13.68;;;8.63;;
57047;SDS011;42934;54.294;18.598;2023-01-30T03:19:25;12.85;;;8.70;;
57047;SDS011;42934;54.294;18.598;2023-01-30T03:21:58;13.93;;;8.65;;
57047;SDS011;42934;54.294;18.598;2023-01-30T03:24:28;14.07;;;8.57;;
57047;SDS011;42934;54.294;18.598;2023-01-30T03:26:57;12.52;;;7.70;;
57047;SDS011;42934;54.294;18.598;2023-01-30T03:29:30;11.98;;;7.30;;
57047;SDS011;42934;54.294;18.598;2023-01-30T03:31:59;11.02;;;7.32;;
57047;SDS011;42934;54.294;18.598;2023-01-30T03:34:30;8.90;;;5.97;;
57047;SDS011;42934;54.294;18.598;2023-01-30T03:39:32;9.55;;;6.30;;
57047;SDS011;42934;54.294;18.598;2023-01-30T03:42:04;9.38;;;5.97;;
57047;SDS011;42934;54.294;18.598;2023-01-30T03:44:33;9.40;;;6.33;;
57047;SDS011;42934;54.294;18.598;2023-01-30T03:47:02;8.25;;;5.82;;
57047;SDS011;42934;54.294;18.598;2023-01-30T03:49:34;8.63;;;5.65;;
57047;SDS011;42934;54.294;18.598;2023-01-30T03:54:32;8.57;;;5.53;;
57047;SDS011;42934;54.294;18.598;2023-01-30T03:57:02;8.75;;;5.47;;
57047;SDS011;42934;54.294;18.598;2023-01-30T04:02:06;7.30;;;4.90;;
57047;SDS011;42934;54.294;18.598;2023-01-30T04:04:36;6.93;;;4.57;;
57047;SDS011;42934;54.294;18.598;2023-01-30T04:07:08;7.68;;;5.05;;
57047;SDS011;42934;54.294;18.598;2023-01-30T04:09:39;7.13;;;4.70;;
57047;SDS011;42934;54.294;18.598;2023-01-30T04:12:08;7.60;;;5.03;;
57047;SDS011;42934;54.294;18.598;2023-01-30T04:14:45;6.60;;;4.18;;
57047;SDS011;42934;54.294;18.598;2023-01-30T04:17:31;7.38;;;4.63;;
57047;SDS011;42934;54.294;18.598;2023-01-30T04:20:25;6.93;;;4.65;;
57047;SDS011;42934;54.294;18.598;2023-01-30T04:22:55;6.35;;;4.45;;
57047;SDS011;42934;54.294;18.598;2023-01-30T04:25:26;6.97;;;4.82;;
57047;SDS011;42934;54.294;18.598;2023-01-30T04:27:55;5.75;;;4.00;;
57047;SDS011;42934;54.294;18.598;2023-01-30T04:30:28;8.23;;;4.68;;
57047;SDS011;42934;54.294;18.598;2023-01-30T04:33:16;5.25;;;4.07;;
57047;SDS011;42934;54.294;18.598;2023-01-30T04:35:51;5.60;;;4.15;;
57047;SDS011;42934;54.294;18.598;2023-01-30T04:38:21;5.85;;;4.22;;
57047;SDS011;42934;54.294;18.598;2023-01-30T04:40:52;7.13;;;4.00;;
57047;SDS011;42934;54.294;18.598;2023-01-30T04:43:25;5.85;;;4.30;;
57047;SDS011;42934;54.294;18.598;2023-01-30T04:46:01;6.03;;;4.32;;
57047;SDS011;42934;54.294;18.598;2023-01-30T04:48:31;7.18;;;4.05;;
57047;SDS011;42934;54.294;18.598;2023-01-30T04:51:03;5.82;;;4.45;;
57047;SDS011;42934;54.294;18.598;2023-01-30T04:53:34;5.93;;;3.90;;
57047;SDS011;42934;54.294;18.598;2023-01-30T04:56:04;6.43;;;3.58;;
57047;SDS011;42934;54.294;18.598;2023-01-30T05:01:13;6.45;;;3.80;;
57047;SDS011;42934;54.294;18.598;2023-01-30T05:03:43;5.38;;;3.40;;
57047;SDS011;42934;54.294;18.598;2023-01-30T05:06:13;4.80;;;3.33;;
57047;SDS011;42934;54.294;18.598;2023-01-30T05:11:14;5.20;;;3.63;;
57047;SDS011;42934;54.294;18.598;2023-01-30T05:13:44;5.15;;;3.38;;
57047;SDS011;42934;54.294;18.598;2023-01-30T05:16:14;5.30;;;3.80;;
57047;SDS011;42934;54.294;18.598;2023-01-30T05:18:43;6.50;;;3.72;;
57047;SDS011;42934;54.294;18.598;2023-01-30T05:21:15;4.60;;;3.33;;
57047;SDS011;42934;54.294;18.598;2023-01-30T05:23:45;4.95;;;3.42;;
57047;SDS011;42934;54.294;18.598;2023-01-30T05:26:14;4.40;;;3.03;;
57047;SDS011;42934;54.294;18.598;2023-01-30T05:28:43;5.70;;;3.00;;
57047;SDS011;42934;54.294;18.598;2023-01-30T05:31:17;5.18;;;3.28;;
57047;SDS011;42934;54.294;18.598;2023-01-30T05:33:47;4.97;;;3.28;;
57047;SDS011;42934;54.294;18.598;2023-01-30T05:36:20;3.60;;;2.70;;
57047;SDS011;42934;54.294;18.598;2023-01-30T05:38:50;4.35;;;2.95;;
57047;SDS011;42934;54.294;18.598;2023-01-30T05:41:19;6.00;;;2.87;;
57047;SDS011;42934;54.294;18.598;2023-01-30T05:43:48;4.97;;;3.05;;
57047;SDS011;42934;54.294;18.598;2023-01-30T05:46:18;4.13;;;3.03;;
57047;SDS011;42934;54.294;18.598;2023-01-30T05:48:47;4.22;;;2.72;;
57047;SDS011;42934;54.294;18.598;2023-01-30T05:51:17;3.63;;;2.92;;
57047;SDS011;42934;54.294;18.598;2023-01-30T05:53:49;5.25;;;2.75;;
57047;SDS011;42934;54.294;18.598;2023-01-30T05:56:19;5.57;;;3.15;;
57047;SDS011;42934;54.294;18.598;2023-01-30T05:58:49;5.75;;;2.83;;
57047;SDS011;42934;54.294;18.598;2023-01-30T06:03:49;3.90;;;2.63;;
57047;SDS011;42934;54.294;18.598;2023-01-30T06:06:20;3.85;;;2.72;;
57047;SDS011;42934;54.294;18.598;2023-01-30T06:08:51;3.45;;;2.42;;
57047;SDS011;42934;54.294;18.598;2023-01-30T06:11:21;3.42;;;2.42;;
57047;SDS011;42934;54.294;18.598;2023-01-30T06:13:51;4.38;;;2.60;;
57047;SDS011;42934;54.294;18.598;2023-01-30T06:16:20;4.05;;;2.47;;
57047;SDS011;42934;54.294;18.598;2023-01-30T06:18:49;3.00;;;2.33;;
57047;SDS011;42934;54.294;18.598;2023-01-30T06:21:20;5.07;;;2.50;;
57047;SDS011;42934;54.294;18.598;2023-01-30T06:26:18;4.32;;;2.40;;
57047;SDS011;42934;54.294;18.598;2023-01-30T06:28:47;2.78;;;2.08;;
57047;SDS011;42934;54.294;18.598;2023-01-30T06:31:16;4.13;;;2.20;;
57047;SDS011;42934;54.294;18.598;2023-01-30T06:33:45;2.30;;;1.98;;
57047;SDS011;42934;54.294;18.598;2023-01-30T06:36:15;2.72;;;2.15;;
57047;SDS011;42934;54.294;18.598;2023-01-30T06:38:45;3.45;;;2.20;;
57047;SDS011;42934;54.294;18.598;2023-01-30T06:41:14;2.60;;;2.00;;
57047;SDS011;42934;54.294;18.598;2023-01-30T06:43:43;2.53;;;1.70;;
57047;SDS011;42934;54.294;18.598;2023-01-30T06:46:12;2.67;;;1.88;;
57047;SDS011;42934;54.294;18.598;2023-01-30T06:48:42;2.30;;;1.70;;
57047;SDS011;42934;54.294;18.598;2023-01-30T06:51:11;3.03;;;2.10;;
57047;SDS011;42934;54.294;18.598;2023-01-30T06:53:40;3.28;;;1.92;;
57047;SDS011;42934;54.294;18.598;2023-01-30T06:56:10;2.97;;;1.98;;
57047;SDS011;42934;54.294;18.598;2023-01-30T07:01:09;1.83;;;1.52;;
57047;SDS011;42934;54.294;18.598;2023-01-30T07:03:38;3.10;;;1.83;;
57047;SDS011;42934;54.294;18.598;2023-01-30T07:06:07;2.20;;;2.00;;
57047;SDS011;42934;54.294;18.598;2023-01-30T07:08:38;2.53;;;1.73;;
57047;SDS011;42934;54.294;18.598;2023-01-30T07:11:11;2.35;;;1.98;;
57047;SDS011;42934;54.294;18.598;2023-01-30T07:13:40;3.15;;;2.00;;
57047;SDS011;42934;54.294;18.598;2023-01-30T07:16:09;2.78;;;2.15;;
57047;SDS011;42934;54.294;18.598;2023-01-30T07:18:38;4.93;;;2.10;;
57047;SDS011;42934;54.294;18.598;2023-01-30T07:21:07;3.25;;;2.10;;
57047;SDS011;42934;54.294;18.598;2023-01-30T07:23:36;3.13;;;2.08;;
57047;SDS011;42934;54.294;18.598;2023-01-30T07:26:05;1.98;;;1.75;;
57047;SDS011;42934;54.294;18.598;2023-01-30T07:28:35;3.00;;;2.30;;
57047;SDS011;42934;54.294;18.598;2023-01-30T07:31:05;2.20;;;2.00;;
57047;SDS011;42934;54.294;18.598;2023-01-30T07:33:34;3.40;;;2.05;;
57047;SDS011;42934;54.294;18.598;2023-01-30T07:36:03;2.67;;;2.27;;
57047;SDS011;42934;54.294;18.598;2023-01-30T07:38:33;3.55;;;2.55;;
57047;SDS011;42934;54.294;18.598;2023-01-30T07:41:02;2.75;;;2.00;;
57047;SDS011;42934;54.294;18.598;2023-01-30T07:43:31;3.38;;;2.13;;
57047;SDS011;42934;54.294;18.598;2023-01-30T07:46:02;3.75;;;2.47;;
57047;SDS011;42934;54.294;18.598;2023-01-30T07:48:31;4.55;;;2.65;;
57047;SDS011;42934;54.294;18.598;2023-01-30T07:51:00;4.57;;;2.90;;
57047;SDS011;42934;54.294;18.598;2023-01-30T07:53:30;6.13;;;2.72;;
57047;SDS011;42934;54.294;18.598;2023-01-30T07:55:59;3.58;;;2.30;;
57047;SDS011;42934;54.294;18.598;2023-01-30T07:58:32;2.83;;;2.13;;
57047;SDS011;42934;54.294;18.598;2023-01-30T08:01:03;4.90;;;2.70;;
57047;SDS011;42934;54.294;18.598;2023-01-30T08:03:33;3.67;;;2.70;;
57047;SDS011;42934;54.294;18.598;2023-01-30T08:06:02;3.78;;;2.70;;
57047;SDS011;42934;54.294;18.598;2023-01-30T08:08:31;2.30;;;1.83;;
57047;SDS011;42934;54.294;18.598;2023-01-30T08:11:02;2.35;;;1.85;;
57047;SDS011;42934;54.294;18.598;2023-01-30T08:13:32;3.65;;;2.22;;
57047;SDS011;42934;54.294;18.598;2023-01-30T08:16:04;4.47;;;1.90;;
57047;SDS011;42934;54.294;18.598;2023-01-30T08:18:34;4.10;;;2.30;;
57047;SDS011;42934;54.294;18.598;2023-01-30T08:21:04;2.80;;;2.00;;
57047;SDS011;42934;54.294;18.598;2023-01-30T08:23:34;3.72;;;2.10;;
57047;SDS011;42934;54.294;18.598;2023-01-30T08:26:03;2.88;;;2.05;;
57047;SDS011;42934;54.294;18.598;2023-01-30T08:28:33;3.67;;;2.08;;
57047;SDS011;42934;54.294;18.598;2023-01-30T08:31:07;2.00;;;1.60;;
57047;SDS011;42934;54.294;18.598;2023-01-30T08:33:38;3.03;;;1.80;;
57047;SDS011;42934;54.294;18.598;2023-01-30T08:36:07;2.50;;;1.80;;
57047;SDS011;42934;54.294;18.598;2023-01-30T08:38:37;3.83;;;2.30;;
57047;SDS011;42934;54.294;18.598;2023-01-30T08:41:06;17.30;;;6.43;;
57047;SDS011;42934;54.294;18.598;2023-01-30T08:43:35;2.85;;;1.92;;
57047;SDS011;42934;54.294;18.598;2023-01-30T08:46:06;3.08;;;1.95;;
57047;SDS011;42934;54.294;18.598;2023-01-30T08:48:35;5.55;;;3.17;;
57047;SDS011;42934;54.294;18.598;2023-01-30T08:51:16;2.95;;;1.83;;
57047;SDS011;42934;54.294;18.598;2023-01-30T08:53:45;5.57;;;3.30;;
57047;SDS011;42934;54.294;18.598;2023-01-30T08:56:14;7.22;;;3.05;;
57047;SDS011;42934;54.294;18.598;2023-01-30T08:58:44;2.90;;;1.90;;
57047;SDS011;42934;54.294;18.598;2023-01-30T09:01:17;2.58;;;1.85;;
57047;SDS011;42934;54.294;18.598;2023-01-30T09:03:46;4.28;;;2.70;;
57047;SDS011;42934;54.294;18.598;2023-01-30T09:06:16;5.13;;;3.30;;
57047;SDS011;42934;54.294;18.598;2023-01-30T09:08:45;3.67;;;2.42;;
57047;SDS011;42934;54.294;18.598;2023-01-30T09:11:14;3.33;;;2.10;;
57047;SDS011;42934;54.294;18.598;2023-01-30T09:13:44;4.85;;;2.60;;
57047;SDS011;42934;54.294;18.598;2023-01-30T09:16:17;3.17;;;2.08;;
57047;SDS011;42934;54.294;18.598;2023-01-30T09:18:46;5.13;;;3.78;;
57047;SDS011;42934;54.294;18.598;2023-01-30T09:21:15;4.03;;;2.70;;
57047;SDS011;42934;54.294;18.598;2023-01-30T09:23:45;8.43;;;5.55;;
57047;SDS011;42934;54.294;18.598;2023-01-30T09:26:15;4.55;;;3.47;;
57047;SDS011;42934;54.294;18.598;2023-01-30T09:28:45;4.53;;;2.83;;
57047;SDS011;42934;54.294;18.598;2023-01-30T09:31:16;7.18;;;3.17;;
57047;SDS011;42934;54.294;18.598;2023-01-30T09:33:45;6.65;;;3.45;;
57047;SDS011;42934;54.294;18.598;2023-01-30T09:36:15;6.47;;;3.30;;
57047;SDS011;42934;54.294;18.598;2023-01-30T09:38:44;8.50;;;4.45;;
57047;SDS011;42934;54.294;18.598;2023-01-30T09:41:26;9.02;;;4.85;;
57047;SDS011;42934;54.294;18.598;2023-01-30T09:44:15;7.72;;;3.67;;
57047;SDS011;42934;54.294;18.598;2023-01-30T09:46:59;5.82;;;3.67;;
57047;SDS011;42934;54.294;18.598;2023-01-30T09:49:38;8.20;;;3.47;;
57047;SDS011;42934;54.294;18.598;2023-01-30T09:52:15;5.25;;;2.80;;
57047;SDS011;42934;54.294;18.598;2023-01-30T09:54:54;7.72;;;4.10;;
57047;SDS011;42934;54.294;18.598;2023-01-30T09:57:29;8.40;;;3.42;;
57047;SDS011;42934;54.294;18.598;2023-01-30T10:00:01;5.70;;;3.10;;
57047;SDS011;42934;54.294;18.598;2023-01-30T10:02:46;5.97;;;3.30;;
57047;SDS011;42934;54.294;18.598;2023-01-30T10:05:20;10.97;;;5.37;;
57047;SDS011;42934;54.294;18.598;2023-01-30T10:08:02;10.25;;;4.28;;
57047;SDS011;42934;54.294;18.598;2023-01-30T10:10:48;12.75;;;3.60;;
57047;SDS011;42934;54.294;18.598;2023-01-30T10:13:43;6.25;;;2.97;;
57047;SDS011;42934;54.294;18.598;2023-01-30T10:16:23;6.72;;;3.20;;
57047;SDS011;42934;54.294;18.598;2023-01-30T10:19:11;11.30;;;5.30;;
57047;SDS011;42934;54.294;18.598;2023-01-30T10:22:05;10.88;;;3.92;;
57047;SDS011;42934;54.294;18.598;2023-01-30T10:24:43;14.23;;;6.30;;
57047;SDS011;42934;54.294;18.598;2023-01-30T10:27:20;9.65;;;4.80;;
57047;SDS011;42934;54.294;18.598;2023-01-30T10:29:52;18.50;;;7.18;;
57047;SDS011;42934;54.294;18.598;2023-01-30T10:32:25;8.82;;;3.55;;
57047;SDS011;42934;54.294;18.598;2023-01-30T10:35:05;7.10;;;3.15;;
57047;SDS011;42934;54.294;18.598;2023-01-30T10:37:41;10.00;;;4.47;;
57047;SDS011;42934;54.294;18.598;2023-01-30T10:40:17;8.27;;;3.55;;
57047;SDS011;42934;54.294;18.598;2023-01-30T10:42:51;9.55;;;3.78;;
57047;SDS011;42934;54.294;18.598;2023-01-30T10:45:31;7.43;;;3.13;;
57047;SDS011;42934;54.294;18.598;2023-01-30T10:48:14;8.57;;;3.83;;
57047;SDS011;42934;54.294;18.598;2023-01-30T10:51:16;11.23;;;4.95;;
57047;SDS011;42934;54.294;18.598;2023-01-30T10:53:52;9.45;;;3.15;;
57047;SDS011;42934;54.294;18.598;2023-01-30T10:56:27;8.90;;;3.22;;
57047;SDS011;42934;54.294;18.598;2023-01-30T10:59:06;6.65;;;3.40;;
57047;SDS011;42934;54.294;18.598;2023-01-30T11:01:48;9.82;;;4.60;;
57047;SDS011;42934;54.294;18.598;2023-01-30T11:04:28;9.15;;;4.35;;
57047;SDS011;42934;54.294;18.598;2023-01-30T11:07:04;6.07;;;3.55;;
57047;SDS011;42934;54.294;18.598;2023-01-30T11:09:40;12.90;;;5.88;;
57047;SDS011;42934;54.294;18.598;2023-01-30T11:12:11;10.25;;;5.55;;
57047;SDS011;42934;54.294;18.598;2023-01-30T11:14:49;12.55;;;6.28;;
57047;SDS011;42934;54.294;18.598;2023-01-30T11:17:20;7.53;;;3.08;;
57047;SDS011;42934;54.294;18.598;2023-01-30T11:19:57;11.57;;;5.18;;
57047;SDS011;42934;54.294;18.598;2023-01-30T11:22:34;10.75;;;5.28;;
57047;SDS011;42934;54.294;18.598;2023-01-30T11:25:05;13.82;;;5.97;;
57047;SDS011;42934;54.294;18.598;2023-01-30T11:27:42;13.05;;;4.72;;
57047;SDS011;42934;54.294;18.598;2023-01-30T11:30:19;12.80;;;4.95;;
57047;SDS011;42934;54.294;18.598;2023-01-30T11:33:04;9.45;;;3.78;;
57047;SDS011;42934;54.294;18.598;2023-01-30T11:35:40;6.88;;;3.08;;
57047;SDS011;42934;54.294;18.598;2023-01-30T11:38:23;7.88;;;2.60;;
57047;SDS011;42934;54.294;18.598;2023-01-30T11:41:02;8.32;;;2.30;;
57047;SDS011;42934;54.294;18.598;2023-01-30T11:43:33;12.65;;;2.78;;
57047;SDS011;42934;54.294;18.598;2023-01-30T11:46:06;8.27;;;2.40;;
57047;SDS011;42934;54.294;18.598;2023-01-30T11:48:40;7.45;;;2.30;;
57047;SDS011;42934;54.294;18.598;2023-01-30T11:51:33;12.57;;;2.40;;
57047;SDS011;42934;54.294;18.598;2023-01-30T11:54:05;8.00;;;2.35;;
57047;SDS011;42934;54.294;18.598;2023-01-30T11:56:41;8.93;;;2.40;;
57047;SDS011;42934;54.294;18.598;2023-01-30T11:59:20;7.95;;;2.88;;
57047;SDS011;42934;54.294;18.598;2023-01-30T12:02:00;8.05;;;2.50;;
57047;SDS011;42934;54.294;18.598;2023-01-30T12:04:33;9.75;;;2.22;;
57047;SDS011;42934;54.294;18.598;2023-01-30T12:07:03;9.20;;;2.67;;
57047;SDS011;42934;54.294;18.598;2023-01-30T12:09:37;10.15;;;2.63;;
57047;SDS011;42934;54.294;18.598;2023-01-30T12:15:01;10.40;;;3.28;;
57047;SDS011;42934;54.294;18.598;2023-01-30T12:17:45;11.93;;;2.70;;
57047;SDS011;42934;54.294;18.598;2023-01-30T12:20:22;14.40;;;3.25;;
57047;SDS011;42934;54.294;18.598;2023-01-30T12:23:01;9.05;;;2.92;;
57047;SDS011;42934;54.294;18.598;2023-01-30T12:25:42;14.68;;;2.63;;
57047;SDS011;42934;54.294;18.598;2023-01-30T12:28:20;9.48;;;2.40;;
57047;SDS011;42934;54.294;18.598;2023-01-30T12:30:53;17.15;;;3.53;;
57047;SDS011;42934;54.294;18.598;2023-01-30T12:33:29;8.40;;;2.03;;
57047;SDS011;42934;54.294;18.598;2023-01-30T12:36:04;8.35;;;1.88;;
57047;SDS011;42934;54.294;18.598;2023-01-30T12:38:41;10.10;;;1.80;;
57047;SDS011;42934;54.294;18.598;2023-01-30T12:41:30;10.70;;;2.08;;
57047;SDS011;42934;54.294;18.598;2023-01-30T12:44:18;7.05;;;2.08;;
57047;SDS011;42934;54.294;18.598;2023-01-30T12:46:59;10.15;;;2.03;;
57047;SDS011;42934;54.294;18.598;2023-01-30T12:49:44;9.70;;;1.98;;
57047;SDS011;42934;54.294;18.598;2023-01-30T12:52:39;8.52;;;2.20;;
57047;SDS011;42934;54.294;18.598;2023-01-30T12:55:20;14.23;;;2.53;;
57047;SDS011;42934;54.294;18.598;2023-01-30T12:57:59;7.80;;;1.85;;
57047;SDS011;42934;54.294;18.598;2023-01-30T13:00:38;12.80;;;2.33;;
57047;SDS011;42934;54.294;18.598;2023-01-30T13:03:22;11.90;;;2.42;;
57047;SDS011;42934;54.294;18.598;2023-01-30T13:05:59;11.55;;;2.67;;
57047;SDS011;42934;54.294;18.598;2023-01-30T13:08:46;12.57;;;2.70;;
57047;SDS011;42934;54.294;18.598;2023-01-30T13:21:17;12.65;;;2.10;;
57047;SDS011;42934;54.294;18.598;2023-01-30T13:23:55;10.10;;;1.92;;
57047;SDS011;42934;54.294;18.598;2023-01-30T13:26:37;10.63;;;2.17;;
57047;SDS011;42934;54.294;18.598;2023-01-30T13:32:32;7.55;;;1.88;;
57047;SDS011;42934;54.294;18.598;2023-01-30T13:35:13;15.32;;;2.95;;
57047;SDS011;42934;54.294;18.598;2023-01-30T13:37:46;12.57;;;3.17;;
57047;SDS011;42934;54.294;18.598;2023-01-30T13:40:18;10.57;;;3.85;;
57047;SDS011;42934;54.294;18.598;2023-01-30T13:42:50;9.57;;;2.75;;
57047;SDS011;42934;54.294;18.598;2023-01-30T13:45:24;7.97;;;2.08;;
57047;SDS011;42934;54.294;18.598;2023-01-30T13:48:00;9.60;;;2.88;;
57047;SDS011;42934;54.294;18.598;2023-01-30T13:50:48;10.32;;;3.30;;
57047;SDS011;42934;54.294;18.598;2023-01-30T13:53:35;12.65;;;3.15;;
57047;SDS011;42934;54.294;18.598;2023-01-30T13:56:11;8.43;;;2.42;;
57047;SDS011;42934;54.294;18.598;2023-01-30T13:59:09;10.60;;;2.88;;
57047;SDS011;42934;54.294;18.598;2023-01-30T14:04:43;8.25;;;2.30;;
57047;SDS011;42934;54.294;18.598;2023-01-30T14:07:17;9.43;;;2.28;;
57047;SDS011;42934;54.294;18.598;2023-01-30T14:10:10;6.50;;;2.28;;
57047;SDS011;42934;54.294;18.598;2023-01-30T14:12:43;6.72;;;2.70;;
57047;SDS011;42934;54.294;18.598;2023-01-30T14:15:21;9.38;;;3.10;;
57047;SDS011;42934;54.294;18.598;2023-01-30T14:17:56;8.60;;;3.25;;
57047;SDS011;42934;54.294;18.598;2023-01-30T14:20:32;10.90;;;2.47;;
57047;SDS011;42934;54.294;18.598;2023-01-30T14:23:04;16.30;;;3.28;;
57047;SDS011;42934;54.294;18.598;2023-01-30T14:25:47;9.35;;;2.60;;
57047;SDS011;42934;54.294;18.598;2023-01-30T14:41:24;9.77;;;2.65;;
57047;SDS011;42934;54.294;18.598;2023-01-30T14:43:54;8.13;;;2.33;;
57047;SDS011;42934;54.294;18.598;2023-01-30T14:46:42;10.50;;;2.30;;
57047;SDS011;42934;54.294;18.598;2023-01-30T14:51:55;7.80;;;2.05;;
57047;SDS011;42934;54.294;18.598;2023-01-30T14:54:26;6.33;;;2.03;;
57047;SDS011;42934;54.294;18.598;2023-01-30T14:57:22;7.53;;;2.20;;
57047;SDS011;42934;54.294;18.598;2023-01-30T14:59:59;7.63;;;1.90;;
57047;SDS011;42934;54.294;18.598;2023-01-30T15:02:46;10.65;;;2.35;;
57047;SDS011;42934;54.294;18.598;2023-01-30T15:05:41;10.85;;;2.60;;
57047;SDS011;42934;54.294;18.598;2023-01-30T15:08:13;6.80;;;2.28;;
57047;SDS011;42934;54.294;18.598;2023-01-30T15:10:49;13.70;;;3.92;;
57047;SDS011;42934;54.294;18.598;2023-01-30T15:13:37;12.68;;;4.03;;
57047;SDS011;42934;54.294;18.598;2023-01-30T15:16:15;6.80;;;2.25;;
57047;SDS011;42934;54.294;18.598;2023-01-30T15:19:02;9.20;;;2.58;;
57047;SDS011;42934;54.294;18.598;2023-01-30T15:21:52;12.68;;;3.17;;
57047;SDS011;42934;54.294;18.598;2023-01-30T15:27:36;20.65;;;4.90;;
57047;SDS011;42934;54.294;18.598;2023-01-30T15:30:21;69.68;;;22.08;;
57047;SDS011;42934;54.294;18.598;2023-01-30T15:33:08;22.23;;;6.80;;
57047;SDS011;42934;54.294;18.598;2023-01-30T15:35:52;33.25;;;10.10;;
57047;SDS011;42934;54.294;18.598;2023-01-30T15:38:22;34.13;;;10.50;;
57047;SDS011;42934;54.294;18.598;2023-01-30T15:40:57;26.08;;;7.90;;
57047;SDS011;42934;54.294;18.598;2023-01-30T15:47:55;56.10;;;20.85;;
57047;SDS011;42934;54.294;18.598;2023-01-30T15:50:46;11.85;;;3.95;;
57047;SDS011;42934;54.294;18.598;2023-01-30T15:53:16;34.75;;;13.18;;
57047;SDS011;42934;54.294;18.598;2023-01-30T15:55:50;15.23;;;6.15;;
57047;SDS011;42934;54.294;18.598;2023-01-30T15:58:21;31.77;;;10.95;;
57047;SDS011;42934;54.294;18.598;2023-01-30T16:00:52;47.03;;;15.02;;
57047;SDS011;42934;54.294;18.598;2023-01-30T16:03:27;17.45;;;6.13;;
57047;SDS011;42934;54.294;18.598;2023-01-30T16:05:59;13.10;;;4.55;;
57047;SDS011;42934;54.294;18.598;2023-01-30T16:08:30;23.60;;;8.20;;
57047;SDS011;42934;54.294;18.598;2023-01-30T16:13:29;29.48;;;10.10;;
57047;SDS011;42934;54.294;18.598;2023-01-30T16:15:59;17.75;;;6.38;;
57047;SDS011;42934;54.294;18.598;2023-01-30T16:18:32;18.02;;;6.25;;
57047;SDS011;42934;54.294;18.598;2023-01-30T16:21:06;18.13;;;6.28;;